Fairview Valley, Nevada Weather observations

Data are for observation ending at time listed.
 Day   Time    Ave.   Ave.  Ave.  Vector   Max.   Stn.    Total    Solar   Ave.   Ave.    #1       #2
  of    of     Air    Rel.  Wind   Wind    Wind   Baro.  Precip.   Rad.    Soil   Vis.   Cloud   Cloud
Year   Day     Temp.  Hum.  Speed  Dir.    Gust   Pres.                    Temp.          Ceil    Ceil
2015   (PST)    F      %     mph   deg.    mph     mb.     in.     W/m2     F     (km)   k ft.   k ft.
------------------------------------------------------------------------------------------------------
  87    0:00  999.0   999  999.0   999    999.0    999    999.00     999   999.0   999.0  999.0  999.0
  87    0:10  999.0   999  999.0   999    999.0    999    999.00     999   999.0   999.0  999.0  999.0
  87    0:20  999.0   999  999.0   999    999.0    999    999.00     999   999.0   999.0  999.0  999.0
  87    0:30  999.0   999  999.0   999    999.0    999    999.00     999   999.0   999.0  999.0  999.0
  87    0:40  999.0   999  999.0   999    999.0    999    999.00     999   999.0   999.0  999.0  999.0
  87    0:50  999.0   999  999.0   999    999.0    999    999.00     999   999.0   999.0  999.0  999.0
  87    1:00  999.0   999  999.0   999    999.0    999    999.00     999   999.0   999.0  999.0  999.0
  87    1:10  999.0   999  999.0   999    999.0    999    999.00     999   999.0   999.0  999.0  999.0
  87    1:20  999.0   999  999.0   999    999.0    999    999.00     999   999.0   999.0  999.0  999.0
  87    1:30  999.0   999  999.0   999    999.0    999    999.00     999   999.0   999.0  999.0  999.0
  87    1:40  999.0   999  999.0   999    999.0    999    999.00     999   999.0   999.0  999.0  999.0
  87    1:50  999.0   999  999.0   999    999.0    999    999.00     999   999.0   999.0  999.0  999.0
  87    2:00  999.0   999  999.0   999    999.0    999    999.00     999   999.0   999.0  999.0  999.0
  87    2:10  999.0   999  999.0   999    999.0    999    999.00     999   999.0   999.0  999.0  999.0
  87    2:20  999.0   999  999.0   999    999.0    999    999.00     999   999.0   999.0  999.0  999.0
  87    2:30  999.0   999  999.0   999    999.0    999    999.00     999   999.0   999.0  999.0  999.0
  87    2:40  999.0   999  999.0   999    999.0    999    999.00     999   999.0   999.0  999.0  999.0
  87    2:50  999.0   999  999.0   999    999.0    999    999.00     999   999.0   999.0  999.0  999.0
  87    3:00  999.0   999  999.0   999    999.0    999    999.00     999   999.0   999.0  999.0  999.0
  87    3:10  999.0   999  999.0   999    999.0    999    999.00     999   999.0   999.0  999.0  999.0
  87    3:20  999.0   999  999.0   999    999.0    999    999.00     999   999.0   999.0  999.0  999.0
  87    3:30  999.0   999  999.0   999    999.0    999    999.00     999   999.0   999.0  999.0  999.0
  87    3:40  999.0   999  999.0   999    999.0    999    999.00     999   999.0   999.0  999.0  999.0
  87    3:50  999.0   999  999.0   999    999.0    999    999.00     999   999.0   999.0  999.0  999.0
  87    4:00  999.0   999  999.0   999    999.0    999    999.00     999   999.0   999.0  999.0  999.0
  87    4:10  999.0   999  999.0   999    999.0    999    999.00     999   999.0   999.0  999.0  999.0
  87    4:20  999.0   999  999.0   999    999.0    999    999.00     999   999.0   999.0  999.0  999.0
  87    4:30  999.0   999  999.0   999    999.0    999    999.00     999   999.0   999.0  999.0  999.0
  87    4:40  999.0   999  999.0   999    999.0    999    999.00     999   999.0   999.0  999.0  999.0
  87    4:50   40.4    54    0.3    62      1.9    876     0.00       0    57.6   999.0    0.0  999.0
  87    5:00  999.0   999  999.0   999    999.0    999    999.00     999   999.0   999.0  999.0  999.0
  87    5:10  999.0   999  999.0   999    999.0    999    999.00     999   999.0   999.0  999.0  999.0
  87    5:20  999.0   999  999.0   999    999.0    999    999.00     999   999.0   999.0  999.0  999.0
  87    5:30  999.0   999  999.0   999    999.0    999    999.00     999   999.0   999.0  999.0  999.0
  87    5:40  999.0   999  999.0   999    999.0    999    999.00     999   999.0   999.0  999.0  999.0
  87    5:50   42.6    50    0.4   158      2.4    877     0.00       7    56.9   999.0    0.0  999.0
  87    6:00   40.0    54    1.4   351      5.3    877     0.00      16    56.8   999.0    0.0  999.0
  87    6:10   40.2    54    0.3   350      3.2    877     0.00      46    56.7   999.0    0.0  999.0
  87    6:20   41.2    52    2.1    98      3.5    877     0.00      75    56.5   999.0    0.0  999.0
  87    6:30   43.8    49    3.4    98      6.1    877     0.00     109    56.4   999.0    0.0  999.0
  87    6:40   46.9    44    2.2   113      3.9    878     0.00     138    56.2   999.0    0.0  999.0
  87    6:50   48.8    41    1.5   159      3.7    878     0.00     129    56.1   999.0    0.0  999.0
  87    7:00   47.0    44    3.2   204      5.1    878     0.00     143    56.0   999.0    0.0  999.0
  87    7:10   49.0    41    1.5   200      5.5    878     0.00     228    55.9   999.0    0.0  999.0
  87    7:20   50.4    39    2.0   232      5.3    878     0.00     271    55.8   999.0    0.0  999.0
  87    7:30   52.2    36    2.2   238      3.9    878     0.00     307    55.7   999.0    0.0  999.0
  87    7:40   53.9    34    2.5   214      4.2    878     0.00     334    55.6   999.0    0.0  999.0
  87    7:50   54.5    33    2.0   254      4.6    878     0.00     355    55.5   999.0    0.0  999.0
  87    8:00   55.8    32    0.7   279      2.9    878     0.00     369    55.4   999.0    0.0  999.0
  87    8:10   56.9    30    1.2   231      3.1    878     0.00     421    55.3   999.0    0.0  999.0
  87    8:20   58.1    30    1.5   230      2.8    878     0.00     454    55.3   999.0    0.0  999.0
  87    8:30   59.7    28    2.6   207      4.3    878     0.00     485    55.3   999.0    0.0  999.0
  87    8:40   60.8    27    3.0   204      5.8    878     0.00     516    55.2   999.0    0.0  999.0
  87    8:50   62.1    26    4.0   197      6.4    878     0.00     544    55.2   999.0    0.0  999.0
  87    9:00   63.0    25    4.3   208      6.5    878     0.00     565    55.2   999.0    0.0  999.0
  87    9:10   64.5    23    4.5   203      7.2    878     0.00     605    55.1   999.0    0.0  999.0
  87    9:20   65.2    22    4.8   178      8.4    878     0.00     632    55.1   999.0    0.0  999.0
  87    9:30   66.3    21    5.2   169     10.4    878     0.00     663    55.1   999.0    0.0  999.0
  87    9:40   67.3    20    4.3   194      8.7    878     0.00     689    55.1   999.0    0.0  999.0
  87    9:50   66.2    20    3.7   252     10.5    878     0.00     706    55.1   999.0    0.0  999.0
  87   10:00   67.4    18    8.2   241     13.6    878     0.00     726    55.0   999.0    0.0  999.0
  87   10:10   67.4    16    8.8   287     15.9    878     0.00     745    55.1   999.0    0.0  999.0
  87   10:20   67.9    15    9.0   272     17.9    878     0.00     766    55.1   999.0    0.0  999.0
  87   10:30   67.7    15    9.0   277     16.2    878     0.00     785    55.1   999.0    0.0  999.0
  87   10:40   68.4    15    9.8   291     17.1    878     0.00     799    55.1   999.0    0.0  999.0
  87   10:50   68.8    14   10.6   292     16.4    877     0.00     818    55.1   999.0    0.0  999.0
  87   11:00   69.2    13    9.6   283     14.0    877     0.00     826    55.2   999.0    0.0  999.0
  87   11:10   69.4    13    9.0   256     13.7    877     0.00     778    55.2   999.0    0.0  999.0
  87   11:20   69.5    12    6.7   260     16.1    877     0.00     857    55.3   999.0    0.0  999.0
  87   11:30   70.5    11    5.2   223     12.6    877     0.00     916    55.3   999.0    0.0  999.0
  87   11:40   70.5    12    8.4   248     13.2    877     0.00     958    55.4   999.0    0.0  999.0
  87   11:50   71.3    11    5.4   252     12.1    877     0.00     873    55.5   999.0    0.0  999.0
  87   12:00   71.9    12    9.1   250     15.5    877     0.00     966    55.6   999.0    0.0  999.0
  87   12:10   70.5    12    8.8   281     15.3    877     0.00     565    55.7   999.0    0.0  999.0
  87   12:20   70.7    12   11.2   275     17.9    877     0.00     786    55.8   999.0    0.0  999.0
  87   12:30   70.5    12    7.2   264     16.9    876     0.00     868    55.9   999.0    0.0  999.0
  87   12:40   71.5    12   10.0   248     15.2    876     0.00     889    56.1   999.0    0.0  999.0
  87   12:50   72.1    12   15.5   263     23.9    876     0.00     711    56.2   999.0    0.0  999.0
  87   13:00   71.9    11   10.8   280     20.1    876     0.00     768    56.4   999.0    0.0  999.0
  87   13:10   72.7    10    4.7    10     10.4    876     0.00     845    56.6   999.0    0.0  999.0
  87   13:20   73.4    10   10.5     8     19.1    876     0.00     848    56.9   999.0    0.0  999.0
  87   13:30   73.1     9   11.6   348     19.0    876     0.00     853    57.1   999.0    0.0  999.0
  87   13:40   72.9     9   12.1     1     16.5    876     0.00     770    57.3   999.0    0.0  999.0
  87   13:50   72.6     9    7.7   322     14.5    876     0.00     828    57.5   999.0    0.0  999.0
  87   14:00   73.3     9   10.3    37     17.0    876     0.00     563    57.8   999.0    0.0  999.0
  87   14:10   72.4     9   12.0    28     18.0    876     0.00     551    58.0   999.0    0.0  999.0
  87   14:20   73.2     9   11.3     7     20.3    876     0.00     673    58.2   999.0    0.0  999.0
  87   14:30   73.0     9   11.5     8     18.1    876     0.00     660    58.5   999.0    0.0  999.0
  87   14:40   72.6    10   14.5    14     21.4    875     0.00     506    58.7   999.0    0.0  999.0
  87   14:50   71.9    10   17.5    22     24.8    875     0.00     548    58.9   999.0    0.0  999.0
  87   15:00   72.2    10   16.1    20     21.1    875     0.00     528    59.2   999.0    0.0  999.0
  87   15:10   72.1    10   17.1    19     24.2    875     0.00     586    59.5   999.0    0.0  999.0
  87   15:20   72.4    10   16.8    26     23.0    875     0.00     612    59.7   999.0    0.0  999.0
  87   15:30   71.9    10   16.3    18     24.0    875     0.00     423    59.9   999.0    0.0  999.0
  87   15:40   71.7    10   15.6    13     20.7    875     0.00     509    60.2   999.0    0.0  999.0
  87   15:50   71.9    10   15.6    22     23.2    875     0.00     464    60.4   999.0    0.0  999.0
  87   16:00   71.6    10   14.2    27     21.3    875     0.00     426    60.6   999.0    0.0  999.0
  87   16:10   71.3    10   16.4    27     23.5    875     0.00     373    60.8   999.0    0.0  999.0
  87   16:20   71.1    10   14.8    14     20.0    875     0.00     348    61.0   999.0    0.0  999.0
  87   16:30   70.7    11   15.8     8     20.0    875     0.00     285    61.2   999.0    0.0  999.0
  87   16:40   70.4    11   13.6    13     20.0    875     0.00     244    61.3   999.0    0.0  999.0
  87   16:50   70.2    11   13.7    11     17.5    875     0.00     268    61.5   999.0    0.0  999.0
  87   17:00   70.1    10   11.5     9     14.9    875     0.00     227    61.7   999.0    0.0  999.0
  87   17:10   69.9    10   12.4     6     16.3    875     0.00     183    61.8   999.0    0.0  999.0
  87   17:20   69.6    10   11.1    10     14.6    875     0.00     157    62.0   999.0    0.0  999.0
  87   17:30   69.1    10   10.7   357     13.7    875     0.00     107    62.1   999.0    0.0  999.0
  87   17:40   68.3    11    9.9   359     12.2    875     0.00      63    62.2   999.0    0.0  999.0
  87   17:50   67.2    11    8.2   356     10.4    875     0.00      43    62.3   999.0    0.0  999.0
  87   18:00   65.8    12    8.1   347      9.6    875     0.00      22    62.4   999.0    0.0  999.0
  87   18:10   64.1    13    9.1   345     10.4    875     0.00      10    62.5   999.0    0.0  999.0
  87   18:20   62.7    13   10.0   334     12.6    875     0.00       4    62.6   999.0    0.0  999.0
  87   18:30   61.3    13   10.7   323     12.9    875     0.00       1    62.7   999.0    0.0  999.0
  87   18:40   60.1    12   10.8   321     12.4    875     0.00       0    62.7   999.0    0.0  999.0
  87   18:50   59.6    12   11.1   319     12.5    876     0.00       0    62.7   999.0    0.0  999.0
  87   19:00   58.4    11   10.4   321     11.5    876     0.00       0    62.7   999.0    0.0  999.0
  87   19:10   57.1    11    9.1   322     10.6    876     0.00       0    62.7   999.0    0.0  999.0
  87   19:20   57.1    11    4.7    38      8.9    876     0.00       0    62.7   999.0    0.0  999.0
  87   19:30   59.6     9    3.5    25     10.9    876     0.00       0    62.6   999.0    0.0  999.0
  87   19:40   58.2    10    1.4    70      3.8    876     0.00       0    62.6   999.0    0.0  999.0
  87   19:50   56.9    12    4.2   162      6.1    877     0.00       0    62.5   999.0    0.0  999.0
  87   20:00   56.4    12    3.1   157      5.0    877     0.00       0    62.5   999.0    0.0  999.0
  87   20:10   56.4    12    2.4   163      4.7    877     0.00       0    62.4   999.0    0.0  999.0
  87   20:20   57.2    11    2.2    65      5.3    877     0.00       0    62.3   999.0    0.0  999.0
  87   20:30   59.0    11    4.7    14     18.2    877     0.00       0    62.2   999.0    0.0  999.0
  87   20:40   58.8    11    8.1    26     16.2    877     0.00       0    62.2   999.0    0.0  999.0
  87   20:50   57.3    12    5.5    47      9.5    877     0.00       0    62.0   999.0    0.0  999.0
  87   21:00   54.9    13    5.2    75      9.7    877     0.00       0    62.0   999.0    0.0  999.0
  87   21:10   54.6    13    8.0    72     12.4    877     0.00       0    61.9   999.0    0.0  999.0
  87   21:20   55.1    13    8.6    64     12.3    877     0.00       0    61.8   999.0    0.0  999.0
  87   21:30   55.1    12    9.2    55     11.2    877     0.00       0    61.6   999.0    0.0  999.0
  87   21:40   54.0    13    8.5    66     10.3    877     0.00       0    61.5   999.0    0.0  999.0
  87   21:50   53.4    13    8.5    69     10.6    877     0.00       0    61.4   999.0    0.0  999.0
  87   22:00   53.7    13    9.2    65     11.7    877     0.00       0    61.2   999.0    0.0  999.0
  87   22:10   53.6    12    9.8    58     12.4    877     0.00       0    61.2   999.0    0.0  999.0
  87   22:20   54.3    12    9.8    56     11.5    877     0.00       0    61.0   999.0    0.0  999.0
  87   22:30   54.4    11    8.6    62     12.2    877     0.00       0    60.9   999.0    0.0  999.0
  87   22:40   53.0    12    9.3    59     12.3    877     0.00       0    60.8   999.0    0.0  999.0

Return to Fairview Valley graphs page.


Western Regional Climate Center,wrcc@dri.edu